Time;durP1;ratioP1;P1;durP2;ratioP2;P2;SDS_P1;SDS_P2;PMS_P1;PMS_P2;Temp;Humidity;BMP_temperature;BMP_pressure;BME280_temperature;BME280_humidity;BME280_pressure;Samples;Min_cycle;Max_cycle;Signal;HPM_P1;HPM_P2
2021/11/11 00:00:51;;;;;;;;;43.75;34.25;;;;;21.28;35.44;101940.56;5056856;28;45355;-46
2021/11/11 00:03:18;;;;;;;;;45.25;35.50;;;;;21.23;35.44;101931.97;5057108;28;45470;-46
2021/11/11 00:05:44;;;;;;;;;43.00;35.25;;;;;21.25;35.82;101931.94;5057052;28;45249;-46
2021/11/11 00:08:09;;;;;;;;;42.00;35.00;;;;;21.22;35.74;101924.13;5057106;28;45867;-47
2021/11/11 00:10:35;;;;;;;;;43.50;34.50;;;;;21.20;35.47;101923.31;5056743;28;45292;-47
2021/11/11 00:13:01;;;;;;;;;38.75;33.25;;;;;21.16;35.75;101920.84;5056922;28;45225;-47
2021/11/11 00:15:27;;;;;;;;;43.25;34.00;;;;;21.17;35.87;101926.97;5056852;28;45514;-47
2021/11/11 00:17:53;;;;;;;;;40.50;34.75;;;;;21.15;35.50;101931.44;5056703;28;46161;-46
2021/11/11 00:20:21;;;;;;;;;36.25;33.25;;;;;21.13;35.45;101930.63;5056627;28;45405;-46
2021/11/11 00:22:48;;;;;;;;;40.00;34.25;;;;;21.12;35.50;101936.81;5056813;28;45324;-47
2021/11/11 00:25:14;;;;;;;;;41.25;34.50;;;;;21.11;35.88;101938.59;5056986;28;45248;-46
2021/11/11 00:27:41;;;;;;;;;35.50;32.00;;;;;21.09;35.78;101932.53;5056917;28;45372;-47
2021/11/11 00:30:10;;;;;;;;;41.50;34.00;;;;;21.05;36.07;101924.81;5056738;28;45305;-47
2021/11/11 00:32:36;;;;;;;;;39.50;33.50;;;;;21.04;35.85;101923.09;5056543;28;45335;-47
2021/11/11 00:35:03;;;;;;;;;39.75;33.25;;;;;21.01;35.74;101909.13;5056614;28;45534;-46
2021/11/11 00:37:28;;;;;;;;;39.00;31.25;;;;;21.01;35.87;101901.22;5056287;28;47134;-47
2021/11/11 00:39:54;;;;;;;;;42.00;34.25;;;;;21.00;35.42;101904.75;5056306;28;45226;-46
2021/11/11 00:42:20;;;;;;;;;35.75;33.50;;;;;21.01;35.42;101901.22;5056516;28;45321;-47
2021/11/11 00:44:48;;;;;;;;;34.25;31.50;;;;;20.98;35.63;101901.34;5056655;28;45356;-45
2021/11/11 00:47:14;;;;;;;;;39.50;32.75;;;;;20.95;35.90;101896.19;5056193;28;46365;-48
2021/11/11 00:49:40;;;;;;;;;31.25;27.75;;;;;20.94;35.45;101894.47;5056607;28;45412;-48
2021/11/11 00:52:07;;;;;;;;;40.75;33.00;;;;;20.94;35.80;101893.63;5056326;28;45375;-49
2021/11/11 00:54:33;;;;;;;;;42.50;33.50;;;;;20.92;35.84;101895.47;5038553;28;45233;-48
2021/11/11 00:56:58;;;;;;;;;43.25;35.50;;;;;20.91;35.59;101899.88;5056192;28;45348;-50
2021/11/11 00:59:24;;;;;;;;;42.25;34.25;;;;;20.89;35.73;101901.69;5056122;28;45414;-46
2021/11/11 01:01:50;;;;;;;;;37.75;32.25;;;;;20.89;35.95;101899.06;5056339;28;45252;-47
2021/11/11 01:04:15;;;;;;;;;36.75;31.75;;;;;20.88;36.01;101894.75;5056510;28;45526;-49
2021/11/11 01:06:41;;;;;;;;;37.75;32.50;;;;;20.91;36.14;101902.50;5056277;28;46504;-47
2021/11/11 01:09:06;;;;;;;;;37.00;33.25;;;;;20.92;35.78;101892.84;5055956;28;45316;-51
2021/11/11 01:11:32;;;;;;;;;34.25;32.75;;;;;20.94;35.91;101894.47;5056355;28;45358;-47
2021/11/11 01:13:57;;;;;;;;;34.00;30.50;;;;;20.96;35.77;101897.03;5056477;28;45634;-47
2021/11/11 01:16:23;;;;;;;;;40.25;34.25;;;;;21.01;35.92;101895.94;5055900;28;46598;-46
2021/11/11 01:18:49;;;;;;;;;37.75;34.00;;;;;21.01;35.83;101895.94;5055970;28;45410;-50
2021/11/11 01:21:15;;;;;;;;;38.00;33.50;;;;;21.06;35.78;101890.47;5056057;28;45370;-49
2021/11/11 01:23:41;;;;;;;;;37.25;32.50;;;;;21.07;35.59;101879.00;5056275;28;45483;-47
2021/11/11 01:26:07;;;;;;;;;39.75;33.25;;;;;21.14;35.94;101884.91;5056573;28;45351;-50
2021/11/11 01:28:33;;;;;;;;;37.25;32.75;;;;;21.16;35.86;101881.28;5059429;28;45774;-45
2021/11/11 01:30:59;;;;;;;;;30.75;30.25;;;;;21.21;35.82;101886.38;5059578;28;45271;-45
2021/11/11 01:33:24;;;;;;;;;37.25;33.00;;;;;21.23;35.19;101883.66;5041531;28;45581;-46
2021/11/11 01:35:50;;;;;;;;;38.00;33.25;;;;;21.24;36.03;101883.59;5059222;28;46227;-46
2021/11/11 01:38:16;;;;;;;;;30.00;28.00;;;;;21.25;35.69;101864.22;5059215;28;45461;-46
2021/11/11 01:40:42;;;;;;;;;36.25;32.25;;;;;21.30;35.37;101871.94;5059758;28;45258;-45
2021/11/11 01:43:08;;;;;;;;;36.00;31.50;;;;;21.31;35.81;101860.47;5059437;28;45501;-46
2021/11/11 01:45:39;;;;;;;;;34.50;30.25;;;;;21.36;35.40;101860.25;5059076;28;46258;-45
2021/11/11 01:48:07;;;;;;;;;36.00;32.25;;;;;21.35;35.80;101848.00;5059172;28;45818;-46
2021/11/11 01:50:33;;;;;;;;;35.00;32.25;;;;;21.39;35.33;101849.59;5058074;28;45438;-44
2021/11/11 01:53:01;;;;;;;;;34.75;29.50;;;;;21.39;35.65;101853.06;5059116;28;45305;-44
2021/11/11 01:55:28;;;;;;;;;35.50;32.25;;;;;21.36;35.74;101845.31;5058829;28;45468;-44
2021/11/11 01:57:55;;;;;;;;;34.75;32.75;;;;;21.41;35.18;101848.59;5058985;28;45822;-45
2021/11/11 02:00:28;;;;;;;;;39.25;33.00;;;;;21.37;35.35;101841.75;5059047;28;45241;-48
2021/11/11 02:02:57;;;;;;;;;25.75;22.25;;;;;21.41;35.49;101861.78;5059251;28;45307;-45
2021/11/11 02:05:23;;;;;;;;;33.50;30.75;;;;;21.41;35.26;101855.66;5040624;28;46225;-46
2021/11/11 02:07:53;;;;;;;;;39.75;30.00;;;;;21.43;35.50;101864.38;5058733;28;45940;-45
2021/11/11 02:10:21;;;;;;;;;31.00;27.00;;;;;21.42;35.24;101852.09;5040770;28;45347;-45
2021/11/11 02:12:46;;;;;;;;;33.25;30.50;;;;;21.43;35.43;101854.66;5059273;28;45375;-46
2021/11/11 02:15:13;;;;;;;;;32.00;30.00;;;;;21.44;35.39;101837.09;5059072;28;46277;-47
2021/11/11 02:17:38;;;;;;;;;35.50;31.75;;;;;21.42;35.35;101836.28;5058635;28;45434;-45
2021/11/11 02:20:16;;;;;;;;;34.00;32.50;;;;;21.45;35.47;101846.69;5058648;28;45254;-47
2021/11/11 02:22:42;;;;;;;;;35.00;31.25;;;;;21.45;35.49;101836.13;5059044;28;45535;-46
2021/11/11 02:25:17;;;;;;;;;32.50;31.25;;;;;21.46;35.04;101843.13;5058356;28;46838;-47
2021/11/11 02:27:44;;;;;;;;;35.00;32.75;;;;;21.47;35.34;101842.19;5058756;28;45845;-46
2021/11/11 02:30:13;;;;;;;;;33.75;30.50;;;;;21.46;35.10;101848.41;5058578;28;45245;-46
2021/11/11 02:32:39;;;;;;;;;37.00;33.00;;;;;21.44;35.34;101855.53;5058702;28;45351;-46
2021/11/11 02:35:08;;;;;;;;;36.00;29.50;;;;;21.46;35.08;101861.56;5058267;28;46123;-47
2021/11/11 02:37:34;;;;;;;;;34.50;32.75;;;;;21.46;35.17;101858.94;5058401;28;45264;-45
2021/11/11 02:40:04;;;;;;;;;41.50;33.50;;;;;21.43;35.22;101857.31;5058460;28;45234;-45
2021/11/11 02:42:31;;;;;;;;;35.25;32.50;;;;;21.44;35.19;101853.75;5058393;28;45342;-45
2021/11/11 02:45:00;;;;;;;;;33.50;32.25;;;;;21.42;34.92;101852.94;5058006;28;46555;-45
2021/11/11 02:47:26;;;;;;;;;36.25;32.75;;;;;21.38;35.11;101851.38;5058270;28;45207;-45
2021/11/11 02:49:52;;;;;;;;;32.00;29.25;;;;;21.41;35.16;101858.31;5058340;28;45321;-44
2021/11/11 02:52:18;;;;;;;;;35.25;33.25;;;;;21.40;35.12;101854.78;5058714;28;45532;-45
2021/11/11 02:54:43;;;;;;;;;33.50;29.50;;;;;21.36;34.93;101855.00;5058101;28;46181;-49
2021/11/11 02:57:23;;;;;;;;;32.75;30.50;;;;;21.37;34.86;101856.72;5058031;28;45367;-47
2021/11/11 02:59:53;;;;;;;;;38.00;32.25;;;;;21.36;34.75;101857.63;5058123;28;45296;-46
2021/11/11 03:02:30;;;;;;;;;38.00;31.25;;;;;21.33;35.19;101855.16;5058350;28;45320;-47
2021/11/11 03:04:59;;;;;;;;;35.50;33.50;;;;;21.30;35.18;101843.78;5039495;28;47348;-46
2021/11/11 03:07:25;;;;;;;;;37.25;34.00;;;;;21.29;35.36;101857.91;5057879;28;45898;-47
2021/11/11 03:09:52;;;;;;;;;33.50;31.25;;;;;21.26;35.09;101847.47;5058010;28;45324;-48
2021/11/11 03:12:18;;;;;;;;;35.50;30.50;;;;;21.26;35.49;101852.75;5058324;28;45542;-45
2021/11/11 03:14:45;;;;;;;;;34.75;31.25;;;;;21.24;35.31;101856.38;5039647;28;47549;-44
2021/11/11 03:17:11;;;;;;;;;36.00;33.25;;;;;21.22;35.20;101855.59;5057745;28;45327;-45
2021/11/11 03:19:38;;;;;;;;;38.00;31.25;;;;;21.20;35.09;101858.28;5057796;28;45339;-44
2021/11/11 03:22:06;;;;;;;;;34.25;31.25;;;;;21.19;35.34;101851.31;5057911;28;45522;-45
2021/11/11 03:24:33;;;;;;;;;32.50;29.75;;;;;21.16;35.20;101849.66;5057417;28;46180;-44
2021/11/11 03:26:58;;;;;;;;;37.50;32.50;;;;;21.15;35.10;101857.63;5057608;28;45939;-46
2021/11/11 03:29:24;;;;;;;;;38.25;31.00;;;;;21.13;34.92;101862.09;5057680;28;45827;-44
2021/11/11 03:31:49;;;;;;;;;32.25;31.25;;;;;21.10;35.47;101856.97;5040150;28;45661;-44
2021/11/11 03:34:15;;;;;;;;;32.25;29.50;;;;;21.12;35.36;101849.81;5039713;28;47420;-44
2021/11/11 03:36:40;;;;;;;;;34.25;31.25;;;;;21.09;35.41;101853.47;5057390;28;45422;-45
2021/11/11 03:39:06;;;;;;;;;39.50;32.50;;;;;21.07;35.31;101851.81;5057577;28;45339;-46
2021/11/11 03:41:31;;;;;;;;;32.50;31.50;;;;;21.06;35.31;101860.63;5057709;28;45357;-46
2021/11/11 03:43:57;;;;;;;;;30.25;30.00;;;;;21.05;35.48;101859.78;5057212;28;46402;-45
2021/11/11 03:46:22;;;;;;;;;32.00;29.00;;;;;21.00;35.45;101843.31;5057376;28;45270;-47
2021/11/11 03:48:48;;;;;;;;;33.25;31.50;;;;;21.01;35.25;101860.84;5057073;28;45289;-46
2021/11/11 03:51:14;;;;;;;;;29.25;28.00;;;;;20.99;35.50;101857.41;5057659;28;45178;-45
2021/11/11 03:53:40;;;;;;;;;31.25;29.00;;;;;20.97;35.23;101868.00;5057048;28;45449;-46
2021/11/11 03:56:06;;;;;;;;;34.75;31.75;;;;;20.95;35.20;101861.94;5057068;28;45899;-45
2021/11/11 03:58:31;;;;;;;;;33.25;31.25;;;;;20.96;35.13;101871.56;5057335;28;45446;-45
2021/11/11 04:00:56;;;;;;;;;35.75;31.50;;;;;20.96;35.12;101870.69;5057517;28;45426;-45
2021/11/11 04:03:22;;;;;;;;;36.75;33.50;;;;;20.93;35.55;101863.78;5057035;28;46130;-46
2021/11/11 04:05:47;;;;;;;;;36.25;28.75;;;;;20.90;35.20;101863.88;5057304;28;45228;-46
2021/11/11 04:08:13;;;;;;;;;34.50;33.25;;;;;20.89;35.04;101867.44;5057208;28;45600;-44
2021/11/11 04:10:38;;;;;;;;;40.75;33.00;;;;;20.89;35.50;101870.06;5057153;28;45450;-45
2021/11/11 04:13:06;;;;;;;;;33.25;28.00;;;;;20.89;35.00;101867.44;5056832;28;46393;-46
2021/11/11 04:15:32;;;;;;;;;35.00;31.25;;;;;20.88;35.27;101872.78;5056813;28;45350;-45
2021/11/11 04:17:58;;;;;;;;;36.50;30.75;;;;;20.82;35.18;101863.34;5057076;28;45718;-47
2021/11/11 04:20:24;;;;;;;;;30.75;28.50;;;;;20.86;35.15;101875.50;5057252;28;45545;-47
2021/11/11 04:22:50;;;;;;;;;36.00;32.00;;;;;20.84;35.56;101872.06;5057074;28;46896;-45
2021/11/11 04:25:21;;;;;;;;;38.25;31.00;;;;;20.87;35.62;101882.47;5056922;28;45249;-46
2021/11/11 04:28:02;;;;;;;;;33.50;31.25;;;;;20.91;35.39;101902.50;5056782;28;45383;-46
2021/11/11 04:30:32;;;;;;;;;39.25;32.50;;;;;20.93;35.60;101897.19;5057018;28;45424;-45
2021/11/11 04:32:58;;;;;;;;;33.00;30.50;;;;;20.95;35.46;101901.47;5056387;28;46167;-45
2021/11/11 04:35:23;;;;;;;;;41.25;33.50;;;;;20.99;35.24;101912.75;5056971;28;45394;-46
2021/11/11 05:01:34;;;;;;;;;34.25;32.00;;;;;21.30;34.84;101904.44;5057827;28;45407;-46
2021/11/11 05:03:59;;;;;;;;;31.50;30.25;;;;;21.33;35.24;101907.88;5059651;28;46896;-46
2021/11/11 05:06:24;;;;;;;;;34.50;31.25;;;;;21.35;35.14;101900.75;5059883;28;45342;-47
2021/11/11 05:08:50;;;;;;;;;32.00;30.25;;;;;21.37;35.11;101901.53;5058950;28;45339;-46
2021/11/11 05:11:17;;;;;;;;;31.75;30.00;;;;;21.38;34.80;101897.97;5060075;28;45615;-45
2021/11/11 05:13:43;;;;;;;;;27.50;24.75;;;;;21.37;35.12;101899.78;5041569;28;46220;-45
2021/11/11 05:16:08;;;;;;;;;27.75;26.50;;;;;21.39;34.87;101897.06;5059615;28;45395;-45
2021/11/11 05:18:34;;;;;;;;;36.00;31.25;;;;;21.42;35.11;101910.13;5059801;28;45398;-45
2021/11/11 05:20:59;;;;;;;;;33.25;28.25;;;;;21.42;34.93;101899.59;5059976;28;45359;-46
2021/11/11 05:23:25;;;;;;;;;29.75;28.00;;;;;21.42;35.09;101905.69;5059737;28;45399;-47
2021/11/11 05:25:51;;;;;;;;;31.50;29.00;;;;;21.43;35.13;101903.94;5059548;28;45368;-46
2021/11/11 05:28:17;;;;;;;;;34.75;30.00;;;;;21.42;35.25;101905.69;5059633;28;45425;-45
2021/11/11 05:30:42;;;;;;;;;27.75;27.75;;;;;21.43;35.21;101907.41;5059783;28;45559;-46
2021/11/11 05:33:08;;;;;;;;;31.50;31.25;;;;;21.43;35.02;101912.69;5059221;28;45320;-45
2021/11/11 05:35:34;;;;;;;;;28.00;27.75;;;;;21.43;35.23;101907.41;5059364;28;45224;-46
2021/11/11 05:38:00;;;;;;;;;28.50;27.75;;;;;21.44;35.09;101908.28;5059449;28;45381;-47
2021/11/11 05:40:25;;;;;;;;;29.25;28.25;;;;;21.45;35.04;101915.25;5059995;28;45363;-46
2021/11/11 05:42:51;;;;;;;;;20.00;19.25;;;;;21.43;35.21;101912.69;5059167;28;45936;-45
2021/11/11 05:45:17;;;;;;;;;29.00;26.00;;;;;21.42;34.79;101910.13;5059243;28;45780;-45
2021/11/11 05:47:44;;;;;;;;;36.75;30.25;;;;;21.46;34.70;101917.84;5059405;28;45507;-46
2021/11/11 05:50:12;;;;;;;;;33.50;30.00;;;;;21.45;35.01;101931.06;5059395;28;45554;-49
2021/11/11 05:52:37;;;;;;;;;28.50;26.75;;;;;21.43;34.69;101936.44;5059012;28;45516;-46
2021/11/11 05:55:04;;;;;;;;;31.50;28.75;;;;;21.43;34.66;101943.50;5058994;28;45241;-47
2021/11/11 05:57:30;;;;;;;;;34.50;25.75;;;;;21.40;34.57;101947.09;5059111;28;45309;-45
2021/11/11 05:59:55;;;;;;;;;30.50;30.50;;;;;21.37;34.62;101944.59;5059652;28;45431;-48
2021/11/11 06:02:21;;;;;;;;;40.00;33.00;;;;;21.39;34.40;101952.44;5058839;28;46195;-46
2021/11/11 06:04:46;;;;;;;;;30.25;26.75;;;;;21.37;34.71;101957.78;5058762;28;45237;-45
2021/11/11 06:07:11;;;;;;;;;39.50;29.75;;;;;21.37;34.68;101970.09;5058983;28;45168;-46
2021/11/11 06:09:38;;;;;;;;;37.50;31.75;;;;;21.36;34.52;101976.28;5059172;28;45222;-45
2021/11/11 06:12:03;;;;;;;;;35.00;31.00;;;;;21.33;34.59;101973.81;5058344;28;46262;-45
2021/11/11 06:14:29;;;;;;;;;35.50;33.25;;;;;21.28;34.62;101971.31;5058756;28;45410;-46
2021/11/11 06:16:54;;;;;;;;;35.75;31.00;;;;;21.25;34.47;101982.88;5059056;28;45371;-48
2021/11/11 06:19:20;;;;;;;;;32.00;30.50;;;;;21.27;34.37;101994.22;5058978;28;45514;-47
2021/11/11 06:21:46;;;;;;;;;32.50;29.25;;;;;21.24;34.68;101991.69;5058504;28;45429;-46
2021/11/11 06:24:14;;;;;;;;;32.75;31.25;;;;;21.24;34.39;102006.66;5058437;28;45329;-45
2021/11/11 06:26:41;;;;;;;;;37.00;31.25;;;;;21.22;34.47;102004.06;5058716;28;45372;-46
2021/11/11 06:29:06;;;;;;;;;33.50;27.50;;;;;21.20;34.92;102005.06;5058666;28;45267;-45
2021/11/11 06:31:32;;;;;;;;;33.25;27.25;;;;;21.19;34.90;102004.22;5058395;28;45689;-45
2021/11/11 06:33:57;;;;;;;;;36.75;29.75;;;;;21.19;34.93;102019.16;5058653;28;45230;-46
2021/11/11 06:36:24;;;;;;;;;37.50;33.00;;;;;21.15;34.94;102023.69;5040480;28;45340;-47
2021/11/11 06:38:50;;;;;;;;;32.00;31.25;;;;;21.14;34.79;102025.50;5058857;28;45897;-48
2021/11/11 06:41:17;;;;;;;;;40.75;31.50;;;;;21.14;34.67;102032.53;5058150;28;47065;-45
2021/11/11 06:43:43;;;;;;;;;33.00;30.50;;;;;21.11;34.98;102028.25;5058336;28;45434;-47
2021/11/11 06:46:09;;;;;;;;;36.25;31.50;;;;;21.11;34.76;102037.94;5040532;28;45428;-45
2021/11/11 06:48:35;;;;;;;;;38.50;31.25;;;;;21.08;34.71;102036.25;5058473;28;45517;-46
2021/11/11 06:51:01;;;;;;;;;36.25;31.50;;;;;21.04;34.67;102042.59;5058240;28;46711;-46
2021/11/11 06:53:27;;;;;;;;;33.75;31.25;;;;;21.05;35.26;102044.31;5058361;28;45798;-46
2021/11/11 06:55:53;;;;;;;;;35.75;32.50;;;;;21.05;34.70;102051.34;5058232;28;45214;-46
2021/11/11 06:58:22;;;;;;;;;36.75;32.00;;;;;20.99;35.31;102053.31;5058412;28;45486;-47
2021/11/11 07:00:48;;;;;;;;;34.50;30.00;;;;;20.97;35.15;102052.50;5057873;28;46921;-46
2021/11/11 07:03:13;;;;;;;;;33.50;31.25;;;;;21.00;35.15;102055.00;5058110;28;45231;-48
2021/11/11 07:05:39;;;;;;;;;35.75;32.75;;;;;20.98;35.36;102058.63;5058012;28;45553;-47
2021/11/11 07:08:09;;;;;;;;;37.75;30.25;;;;;20.96;35.14;102053.41;5058232;28;45668;-46
2021/11/11 07:10:35;;;;;;;;;36.75;32.50;;;;;20.95;34.57;102059.59;5056614;28;47357;-49
2021/11/11 07:13:01;;;;;;;;;35.25;31.50;;;;;20.90;34.95;102051.00;5058089;28;45926;-46
2021/11/11 07:15:27;;;;;;;;;34.75;32.75;;;;;20.92;35.08;102054.44;5058376;28;45851;-50
2021/11/11 07:17:52;;;;;;;;;30.75;28.50;;;;;20.88;34.67;102047.59;5058063;28;45316;-47
2021/11/11 07:20:18;;;;;;;;;34.00;31.25;;;;;20.90;35.40;102051.00;5057510;28;45444;-47
2021/11/11 07:22:45;;;;;;;;;39.00;33.50;;;;;20.89;34.77;102048.44;5057827;28;45438;-48
2021/11/11 07:25:12;;;;;;;;;36.25;32.00;;;;;20.88;35.28;102055.47;5056564;28;45307;-48
2021/11/11 07:27:38;;;;;;;;;41.25;34.75;;;;;20.88;35.02;102062.50;5057994;28;45318;-47
2021/11/11 07:30:07;;;;;;;;;39.50;33.00;;;;;20.87;35.09;102055.53;5057362;28;45351;-46
2021/11/11 07:32:33;;;;;;;;;31.25;28.25;;;;;20.84;34.94;102057.34;5057399;28;45315;-46
2021/11/11 07:34:58;;;;;;;;;35.25;31.00;;;;;20.82;34.71;102064.47;5040010;28;45224;-47
2021/11/11 07:37:24;;;;;;;;;38.50;32.25;;;;;20.78;34.73;102057.59;5057721;28;45478;-46
2021/11/11 07:39:51;;;;;;;;;38.50;33.50;;;;;20.81;34.73;102064.50;5057277;28;46266;-46
2021/11/11 07:42:19;;;;;;;;;40.00;32.00;;;;;20.78;35.32;102062.00;5057424;28;45450;-46
2021/11/11 07:44:44;;;;;;;;;41.25;34.00;;;;;20.78;34.82;102064.66;5057293;28;45403;-46
2021/11/11 07:47:10;;;;;;;;;34.50;30.00;;;;;20.74;34.90;102061.25;5057630;28;45335;-46
2021/11/11 07:49:35;;;;;;;;;37.00;34.25;;;;;20.74;34.96;102063.00;5056989;28;46410;-46
2021/11/11 07:52:01;;;;;;;;;37.00;31.25;;;;;20.72;35.21;102064.81;5057510;28;45441;-46
2021/11/11 07:54:26;;;;;;;;;40.50;34.00;;;;;20.72;34.70;102067.47;5057330;28;45344;-45
2021/11/11 07:56:51;;;;;;;;;40.50;33.50;;;;;20.70;34.79;102057.84;5057414;28;45305;-47
2021/11/11 07:59:17;;;;;;;;;35.00;31.50;;;;;20.69;35.29;102057.91;5057005;28;46473;-45
2021/11/11 08:01:42;;;;;;;;;45.75;35.00;;;;;20.66;34.93;102048.34;5038972;28;45449;-46
2021/11/11 08:04:07;;;;;;;;;37.75;31.25;;;;;20.67;34.86;102049.19;5057144;28;45426;-46
2021/11/11 08:06:33;;;;;;;;;38.00;33.00;;;;;20.65;34.87;102043.13;5039420;28;45562;-47
2021/11/11 08:08:59;;;;;;;;;49.25;38.25;;;;;20.62;34.53;102041.47;5056865;28;46420;-48
2021/11/11 08:11:25;;;;;;;;;51.75;41.50;;;;;20.42;33.70;102038.69;5056890;28;45794;-45
2021/11/11 08:13:51;;;;;;;;;54.25;42.50;;;;;20.08;33.40;102040.72;5056912;28;45267;-46
2021/11/11 08:16:17;;;;;;;;;53.75;42.00;;;;;19.74;33.47;102032.16;5057111;28;45229;-47
2021/11/11 08:18:42;;;;;;;;;57.25;43.25;;;;;19.38;33.46;102032.44;5056757;28;45516;-45
2021/11/11 08:21:07;;;;;;;;;57.50;45.00;;;;;19.15;34.36;102028.75;5056660;28;45403;-45
2021/11/11 08:23:34;;;;;;;;;47.25;38.75;;;;;19.14;34.91;102032.28;5057192;28;45392;-45
2021/11/11 08:26:04;;;;;;;;;43.00;35.75;;;;;19.23;35.47;102025.03;5057193;28;45368;-45
2021/11/11 08:28:29;;;;;;;;;49.50;38.75;;;;;19.31;35.39;102031.75;5056548;28;46711;-46
2021/11/11 08:30:55;;;;;;;;;46.75;37.25;;;;;19.43;35.35;102041.06;5056703;28;45281;-45
2021/11/11 08:33:20;;;;;;;;;50.00;39.75;;;;;19.51;35.68;102035.56;5056712;28;45716;-45
2021/11/11 08:35:47;;;;;;;;;50.25;37.00;;;;;19.58;35.02;102036.19;5056650;28;45269;-46
2021/11/11 08:38:12;;;;;;;;;39.75;34.50;;;;;19.66;35.39;102035.94;5056392;28;46417;-47
2021/11/11 08:40:39;;;;;;;;;43.50;37.00;;;;;19.70;35.03;102030.53;5038331;28;45386;-46
2021/11/11 08:43:04;;;;;;;;;42.25;35.75;;;;;19.75;35.06;102027.75;5056856;28;45477;-47
2021/11/11 08:45:31;;;;;;;;;48.50;39.00;;;;;19.76;35.13;102019.84;5056621;28;45407;-48
2021/11/11 08:47:58;;;;;;;;;45.75;37.25;;;;;19.83;35.58;102012.59;5056259;28;46274;-47
2021/11/11 08:50:29;;;;;;;;;44.25;36.75;;;;;19.87;34.89;102016.84;5056356;28;45314;-48
2021/11/11 08:52:55;;;;;;;;;43.50;36.00;;;;;19.91;34.96;102012.34;5056348;28;45361;-47
2021/11/11 08:55:23;;;;;;;;;39.50;33.50;;;;;19.93;35.05;102006.13;5056573;28;45426;-45
2021/11/11 08:57:48;;;;;;;;;41.25;34.50;;;;;19.95;34.89;101998.19;5056121;28;45450;-46
2021/11/11 09:00:20;;;;;;;;;43.75;37.00;;;;;20.01;35.42;102000.59;5056129;28;45222;-48
2021/11/11 09:02:48;;;;;;;;;38.75;34.50;;;;;20.02;35.75;101983.88;5056361;28;45335;-49
2021/11/11 09:05:15;;;;;;;;;42.50;34.25;;;;;20.08;35.02;101991.59;5055280;28;45586;-41
2021/11/11 09:07:41;;;;;;;;;45.75;35.75;;;;;20.11;35.77;102002.94;5054707;28;46401;-44
2021/11/11 09:10:09;;;;;;;;;42.50;33.25;;;;;20.12;35.71;101999.38;5037872;28;45281;-43
2021/11/11 09:12:34;;;;;;;;;39.25;33.75;;;;;20.16;35.74;101998.34;5038193;28;45488;-45
2021/11/11 09:15:00;;;;;;;;;40.50;34.50;;;;;20.21;35.61;101993.78;5037975;28;45537;-43
2021/11/11 09:17:26;;;;;;;;;41.50;34.00;;;;;20.27;35.54;102000.59;5054827;28;46732;-44
2021/11/11 09:19:52;;;;;;;;;48.00;36.50;;;;;20.33;35.31;102006.53;5055812;28;45452;-48
2021/11/11 09:22:18;;;;;;;;;37.00;34.00;;;;;20.39;35.48;102000.19;5055599;28;45431;-48
2021/11/11 09:24:43;;;;;;;;;43.50;33.75;;;;;20.45;35.73;101996.47;5055603;28;45638;-43
2021/11/11 09:27:08;;;;;;;;;42.25;34.50;;;;;20.52;35.39;101997.94;5055175;28;45661;-46
2021/11/11 09:29:35;;;;;;;;;43.00;34.25;;;;;20.58;35.53;101991.59;5055955;28;45314;-41
2021/11/11 09:32:00;;;;;;;;;41.75;35.25;;;;;20.63;35.50;101990.50;5055505;28;45376;-43
2021/11/11 09:34:25;;;;;;;;;40.75;34.25;;;;;20.69;35.19;101992.03;5055447;28;45671;-45
2021/11/11 09:36:51;;;;;;;;;45.50;36.25;;;;;20.74;35.63;101989.22;5053966;28;48054;-46
2021/11/11 09:39:16;;;;;;;;;40.75;36.00;;;;;20.80;35.20;101991.66;5055151;28;45305;-41
2021/11/11 09:41:42;;;;;;;;;43.25;34.50;;;;;20.84;35.25;101994.09;5055273;28;45254;-42
2021/11/11 09:44:08;;;;;;;;;40.25;35.50;;;;;20.86;35.12;101991.44;5055685;28;45537;-44
2021/11/11 09:46:33;;;;;;;;;38.25;34.75;;;;;20.94;35.60;102005.16;5055849;28;46369;-45
2021/11/11 09:49:00;;;;;;;;;38.75;33.25;;;;;20.99;35.32;102005.00;5058769;28;45343;-43
2021/11/11 09:51:25;;;;;;;;;40.00;33.50;;;;;21.03;35.18;101997.81;5058598;28;45371;-44
2021/11/11 09:59:05;;;;;;;;;41.50;33.50;;;;;21.08;35.14;101985.31;5059035;28;45199;-46
2021/11/11 10:01:31;;;;;;;;;37.25;32.25;;;;;21.11;35.51;101987.84;5058655;28;45389;-45
2021/11/11 10:03:56;;;;;;;;;38.75;31.75;;;;;21.16;35.33;101993.78;5059041;28;45513;-47
2021/11/11 10:06:25;;;;;;;;;37.00;31.75;;;;;21.16;35.46;101994.66;5058558;28;45316;-52
2021/11/11 10:08:59;;;;;;;;;34.25;31.25;;;;;21.19;35.80;101988.41;5058257;28;45327;-50
2021/11/11 10:11:30;;;;;;;;;40.00;34.00;;;;;21.22;35.31;101987.41;5058404;28;45344;-50
2021/11/11 10:14:14;;;;;;;;;36.50;30.75;;;;;21.22;35.28;101985.63;5058712;28;45384;-46
2021/11/11 10:16:45;;;;;;;;;40.75;33.25;;;;;21.22;35.63;101982.13;5057589;28;46221;-43
2021/11/11 10:19:11;;;;;;;;;38.00;31.25;;;;;21.25;35.75;101963.56;5058350;28;45318;-48
2021/11/11 10:21:50;;;;;;;;;29.75;28.25;;;;;21.26;35.31;101955.59;5058804;28;45351;-45
2021/11/11 10:24:22;;;;;;;;;35.75;31.25;;;;;21.28;35.44;101960.78;5058678;28;45372;-45
2021/11/11 10:27:24;;;;;;;;;37.50;30.50;;;;;21.30;35.56;101964.22;5057377;28;45753;-48
2021/11/11 10:30:08;;;;;;;;;32.50;30.75;;;;;21.31;35.44;101953.63;5020181;28;45504;-47
2021/11/11 10:32:47;;;;;;;;;37.00;33.25;;;;;21.28;35.13;101948.47;5058501;28;45344;-46
2021/11/11 10:35:17;;;;;;;;;39.00;33.25;;;;;21.33;35.47;101947.44;5058678;28;45352;-46
2021/11/11 10:37:51;;;;;;;;;43.50;30.50;;;;;21.34;35.73;101950.00;5057898;28;46564;-44
2021/11/11 10:40:20;;;;;;;;;34.00;31.75;;;;;21.35;35.43;101950.84;5058214;28;45369;-49
2021/11/11 10:42:48;;;;;;;;;34.50;31.50;;;;;21.34;35.72;101957.91;5058148;28;45360;-45
2021/11/11 10:45:17;;;;;;;;;36.00;29.75;;;;;21.34;35.29;101965.81;5058577;28;45734;-51
2021/11/11 10:47:45;;;;;;;;;29.50;28.50;;;;;21.34;35.29;101965.81;5039086;28;47957;-49
2021/11/11 10:50:26;;;;;;;;;33.00;28.25;;;;;21.34;35.85;101973.72;5023669;28;45359;-49
2021/11/11 10:52:55;;;;;;;;;42.00;34.00;;;;;21.35;35.28;101974.56;5057900;28;45389;-52
2021/11/11 10:55:41;;;;;;;;;34.75;32.50;;;;;21.36;35.70;101977.16;5058336;28;45458;-44
2021/11/11 10:58:11;;;;;;;;;35.00;32.00;;;;;21.36;35.60;101971.03;5056184;28;46238;-52
2021/11/11 11:00:55;;;;;;;;;34.25;29.00;;;;;21.36;35.94;101965.75;5057031;28;45348;-48
2021/11/11 11:03:32;;;;;;;;;35.50;29.00;;;;;21.35;35.97;101967.53;5057739;28;45484;-52
2021/11/11 11:05:58;;;;;;;;;32.50;30.25;;;;;21.34;35.75;101954.41;5057941;28;45346;-51
2021/11/11 11:08:28;;;;;;;;;34.00;31.00;;;;;21.34;35.86;101943.84;5038691;28;47167;-50
2021/11/11 11:11:01;;;;;;;;;33.00;27.25;;;;;21.34;36.09;101949.13;5057612;28;45364;-47
2021/11/11 11:13:39;;;;;;;;;38.75;33.75;;;;;21.33;35.69;101939.53;5039598;28;45459;-51
2021/11/11 11:16:28;;;;;;;;;31.50;29.00;;;;;21.33;35.98;101934.25;5058359;28;45577;-47
2021/11/11 11:19:02;;;;;;;;;36.50;32.00;;;;;21.30;35.71;101925.53;5056807;28;46090;-50
2021/11/11 11:21:40;;;;;;;;;37.25;33.25;;;;;21.31;36.13;101923.75;5056626;28;45844;-50
2021/11/11 11:24:10;;;;;;;;;37.50;34.75;;;;;21.30;35.86;101916.75;5058388;28;45328;-50
2021/11/11 11:26:42;;;;;;;;;36.25;31.25;;;;;21.25;35.60;101906.41;5058215;28;45162;-49
2021/11/11 11:29:16;;;;;;;;;34.50;31.50;;;;;21.21;35.86;101904.84;5058129;28;46516;-50
2021/11/11 11:32:06;;;;;;;;;35.50;31.00;;;;;21.24;35.51;101917.88;5039563;28;45471;-49
2021/11/11 11:34:35;;;;;;;;;30.75;27.50;;;;;21.23;36.05;101915.31;5057815;28;45253;-47
2021/11/11 11:37:03;;;;;;;;;39.25;34.75;;;;;21.23;35.80;101921.41;5058004;28;45518;-54
2021/11/11 11:39:33;;;;;;;;;39.50;33.00;;;;;21.25;35.62;101921.38;5057475;28;45450;-46